sensor_id;sensor_type;location;lat;lon;timestamp;P1;durP1;ratioP1;P2;durP2;ratioP2
21162;SDS011;10739;52.198;20.908;2023-04-30T00:01:41;27.80;;;21.95;;
21162;SDS011;10739;52.198;20.908;2023-04-30T00:04:07;31.55;;;23.90;;
21162;SDS011;10739;52.198;20.908;2023-04-30T00:06:39;33.33;;;22.55;;
21162;SDS011;10739;52.198;20.908;2023-04-30T00:10:09;32.08;;;23.30;;
21162;SDS011;10739;52.198;20.908;2023-04-30T00:12:36;31.67;;;23.50;;
21162;SDS011;10739;52.198;20.908;2023-04-30T00:15:03;30.98;;;24.25;;
21162;SDS011;10739;52.198;20.908;2023-04-30T00:17:30;34.63;;;24.45;;
21162;SDS011;10739;52.198;20.908;2023-04-30T00:19:56;29.77;;;24.42;;
21162;SDS011;10739;52.198;20.908;2023-04-30T00:22:23;35.70;;;25.17;;
21162;SDS011;10739;52.198;20.908;2023-04-30T00:24:58;29.63;;;23.85;;
21162;SDS011;10739;52.198;20.908;2023-04-30T00:30:28;32.00;;;24.60;;
21162;SDS011;10739;52.198;20.908;2023-04-30T00:32:54;34.85;;;23.92;;
21162;SDS011;10739;52.198;20.908;2023-04-30T00:35:21;34.17;;;23.55;;
21162;SDS011;10739;52.198;20.908;2023-04-30T00:37:47;31.42;;;22.67;;
21162;SDS011;10739;52.198;20.908;2023-04-30T00:40:13;32.65;;;24.83;;
21162;SDS011;10739;52.198;20.908;2023-04-30T00:42:39;31.40;;;24.58;;
21162;SDS011;10739;52.198;20.908;2023-04-30T00:45:06;32.42;;;24.42;;
21162;SDS011;10739;52.198;20.908;2023-04-30T00:47:33;33.55;;;24.98;;
21162;SDS011;10739;52.198;20.908;2023-04-30T00:50:00;33.78;;;25.35;;
21162;SDS011;10739;52.198;20.908;2023-04-30T00:52:26;32.78;;;25.20;;
21162;SDS011;10739;52.198;20.908;2023-04-30T00:54:52;40.55;;;26.52;;
21162;SDS011;10739;52.198;20.908;2023-04-30T00:57:20;33.85;;;26.08;;
21162;SDS011;10739;52.198;20.908;2023-04-30T00:59:47;33.00;;;24.75;;
21162;SDS011;10739;52.198;20.908;2023-04-30T01:02:14;33.60;;;24.83;;
21162;SDS011;10739;52.198;20.908;2023-04-30T01:04:42;35.50;;;26.15;;
21162;SDS011;10739;52.198;20.908;2023-04-30T01:07:08;30.92;;;24.70;;
21162;SDS011;10739;52.198;20.908;2023-04-30T01:09:35;33.20;;;25.45;;
21162;SDS011;10739;52.198;20.908;2023-04-30T01:12:24;34.22;;;25.80;;
21162;SDS011;10739;52.198;20.908;2023-04-30T01:15:03;37.33;;;26.10;;
21162;SDS011;10739;52.198;20.908;2023-04-30T01:21:01;39.13;;;26.10;;
21162;SDS011;10739;52.198;20.908;2023-04-30T01:23:54;34.53;;;26.27;;
21162;SDS011;10739;52.198;20.908;2023-04-30T01:29:40;32.58;;;24.65;;
21162;SDS011;10739;52.198;20.908;2023-04-30T01:32:09;35.88;;;25.42;;
21162;SDS011;10739;52.198;20.908;2023-04-30T01:34:36;29.27;;;24.27;;
21162;SDS011;10739;52.198;20.908;2023-04-30T01:39:49;30.70;;;23.55;;
21162;SDS011;10739;52.198;20.908;2023-04-30T01:42:29;26.17;;;22.42;;
21162;SDS011;10739;52.198;20.908;2023-04-30T01:51:43;28.60;;;21.77;;
21162;SDS011;10739;52.198;20.908;2023-04-30T01:54:16;24.15;;;20.95;;
21162;SDS011;10739;52.198;20.908;2023-04-30T01:57:16;26.90;;;22.15;;
21162;SDS011;10739;52.198;20.908;2023-04-30T01:59:51;32.90;;;23.30;;
21162;SDS011;10739;52.198;20.908;2023-04-30T02:02:18;25.50;;;22.33;;
21162;SDS011;10739;52.198;20.908;2023-04-30T02:04:44;25.48;;;22.73;;
21162;SDS011;10739;52.198;20.908;2023-04-30T02:07:11;28.08;;;23.63;;
21162;SDS011;10739;52.198;20.908;2023-04-30T02:10:02;30.85;;;23.05;;
21162;SDS011;10739;52.198;20.908;2023-04-30T02:12:30;26.00;;;22.08;;
21162;SDS011;10739;52.198;20.908;2023-04-30T02:14:56;29.77;;;24.02;;
21162;SDS011;10739;52.198;20.908;2023-04-30T02:17:22;31.52;;;23.95;;
21162;SDS011;10739;52.198;20.908;2023-04-30T02:19:49;30.23;;;24.40;;
21162;SDS011;10739;52.198;20.908;2023-04-30T02:22:15;30.77;;;23.95;;
21162;SDS011;10739;52.198;20.908;2023-04-30T02:24:41;29.65;;;23.92;;
21162;SDS011;10739;52.198;20.908;2023-04-30T02:27:07;29.45;;;22.67;;
21162;SDS011;10739;52.198;20.908;2023-04-30T02:29:34;29.00;;;23.58;;
21162;SDS011;10739;52.198;20.908;2023-04-30T02:32:00;25.80;;;22.35;;
21162;SDS011;10739;52.198;20.908;2023-04-30T02:34:26;26.10;;;21.80;;
21162;SDS011;10739;52.198;20.908;2023-04-30T02:36:53;29.23;;;23.52;;
21162;SDS011;10739;52.198;20.908;2023-04-30T02:39:19;30.23;;;22.05;;
21162;SDS011;10739;52.198;20.908;2023-04-30T02:41:46;29.67;;;23.35;;
21162;SDS011;10739;52.198;20.908;2023-04-30T02:44:12;28.55;;;21.50;;
21162;SDS011;10739;52.198;20.908;2023-04-30T02:46:38;26.77;;;21.05;;
21162;SDS011;10739;52.198;20.908;2023-04-30T02:49:04;24.83;;;21.15;;
21162;SDS011;10739;52.198;20.908;2023-04-30T02:51:31;27.63;;;21.63;;
21162;SDS011;10739;52.198;20.908;2023-04-30T02:53:58;31.33;;;22.33;;
21162;SDS011;10739;52.198;20.908;2023-04-30T02:56:24;25.10;;;20.92;;
21162;SDS011;10739;52.198;20.908;2023-04-30T02:58:50;25.25;;;20.60;;
21162;SDS011;10739;52.198;20.908;2023-04-30T03:01:17;27.27;;;21.50;;
21162;SDS011;10739;52.198;20.908;2023-04-30T03:03:43;22.48;;;19.65;;
21162;SDS011;10739;52.198;20.908;2023-04-30T03:06:09;25.02;;;21.15;;
21162;SDS011;10739;52.198;20.908;2023-04-30T03:08:35;24.85;;;20.30;;
21162;SDS011;10739;52.198;20.908;2023-04-30T03:11:02;22.85;;;20.13;;
21162;SDS011;10739;52.198;20.908;2023-04-30T03:13:28;27.95;;;21.25;;
21162;SDS011;10739;52.198;20.908;2023-04-30T03:16:01;24.08;;;20.40;;
21162;SDS011;10739;52.198;20.908;2023-04-30T03:18:29;27.73;;;21.55;;
21162;SDS011;10739;52.198;20.908;2023-04-30T03:20:55;25.20;;;21.17;;
21162;SDS011;10739;52.198;20.908;2023-04-30T03:23:22;27.45;;;19.77;;
21162;SDS011;10739;52.198;20.908;2023-04-30T03:25:51;29.42;;;21.20;;
21162;SDS011;10739;52.198;20.908;2023-04-30T03:28:18;27.95;;;18.83;;
21162;SDS011;10739;52.198;20.908;2023-04-30T03:30:44;21.67;;;18.05;;
21162;SDS011;10739;52.198;20.908;2023-04-30T03:33:11;22.75;;;18.20;;
21162;SDS011;10739;52.198;20.908;2023-04-30T03:35:37;19.02;;;16.77;;
21162;SDS011;10739;52.198;20.908;2023-04-30T03:38:03;20.60;;;16.38;;
21162;SDS011;10739;52.198;20.908;2023-04-30T03:40:29;19.35;;;16.60;;
21162;SDS011;10739;52.198;20.908;2023-04-30T03:42:56;19.73;;;16.52;;
21162;SDS011;10739;52.198;20.908;2023-04-30T03:45:22;19.45;;;16.70;;
21162;SDS011;10739;52.198;20.908;2023-04-30T03:47:50;24.20;;;17.83;;
21162;SDS011;10739;52.198;20.908;2023-04-30T03:50:17;19.10;;;16.73;;
21162;SDS011;10739;52.198;20.908;2023-04-30T03:52:43;19.90;;;14.70;;
21162;SDS011;10739;52.198;20.908;2023-04-30T03:55:10;21.85;;;15.48;;
21162;SDS011;10739;52.198;20.908;2023-04-30T03:57:37;21.48;;;15.55;;
21162;SDS011;10739;52.198;20.908;2023-04-30T04:00:07;20.98;;;14.98;;
21162;SDS011;10739;52.198;20.908;2023-04-30T04:02:35;24.08;;;14.40;;
21162;SDS011;10739;52.198;20.908;2023-04-30T04:05:04;17.95;;;12.65;;
21162;SDS011;10739;52.198;20.908;2023-04-30T04:07:32;17.92;;;11.13;;
21162;SDS011;10739;52.198;20.908;2023-04-30T04:09:59;12.15;;;9.20;;
21162;SDS011;10739;52.198;20.908;2023-04-30T04:12:25;11.57;;;9.00;;
21162;SDS011;10739;52.198;20.908;2023-04-30T04:14:52;13.15;;;8.98;;
21162;SDS011;10739;52.198;20.908;2023-04-30T04:17:18;10.07;;;8.07;;
21162;SDS011;10739;52.198;20.908;2023-04-30T04:19:44;10.40;;;7.22;;
21162;SDS011;10739;52.198;20.908;2023-04-30T04:22:10;10.82;;;8.35;;
21162;SDS011;10739;52.198;20.908;2023-04-30T04:24:37;13.35;;;8.10;;
21162;SDS011;10739;52.198;20.908;2023-04-30T04:27:03;10.10;;;7.82;;
21162;SDS011;10739;52.198;20.908;2023-04-30T04:29:30;11.25;;;8.45;;
21162;SDS011;10739;52.198;20.908;2023-04-30T04:31:56;14.13;;;10.18;;
21162;SDS011;10739;52.198;20.908;2023-04-30T04:34:24;12.75;;;9.48;;
21162;SDS011;10739;52.198;20.908;2023-04-30T04:36:51;17.80;;;10.38;;
21162;SDS011;10739;52.198;20.908;2023-04-30T04:39:17;14.15;;;9.52;;
21162;SDS011;10739;52.198;20.908;2023-04-30T04:41:43;14.85;;;9.93;;
21162;SDS011;10739;52.198;20.908;2023-04-30T04:44:10;14.23;;;9.68;;
21162;SDS011;10739;52.198;20.908;2023-04-30T04:46:36;13.57;;;10.23;;
21162;SDS011;10739;52.198;20.908;2023-04-30T04:49:02;14.95;;;9.70;;
21162;SDS011;10739;52.198;20.908;2023-04-30T04:51:29;15.73;;;9.57;;
21162;SDS011;10739;52.198;20.908;2023-04-30T04:53:57;12.50;;;9.65;;
21162;SDS011;10739;52.198;20.908;2023-04-30T04:56:23;14.00;;;9.98;;
21162;SDS011;10739;52.198;20.908;2023-04-30T04:58:49;13.77;;;10.15;;
21162;SDS011;10739;52.198;20.908;2023-04-30T05:01:16;13.43;;;10.68;;
21162;SDS011;10739;52.198;20.908;2023-04-30T05:03:42;15.50;;;9.38;;
21162;SDS011;10739;52.198;20.908;2023-04-30T05:06:08;12.85;;;10.35;;
21162;SDS011;10739;52.198;20.908;2023-04-30T05:08:34;12.55;;;10.35;;
21162;SDS011;10739;52.198;20.908;2023-04-30T05:11:01;16.75;;;11.32;;
21162;SDS011;10739;52.198;20.908;2023-04-30T05:13:27;16.35;;;10.68;;
21162;SDS011;10739;52.198;20.908;2023-04-30T05:15:53;16.30;;;11.30;;
21162;SDS011;10739;52.198;20.908;2023-04-30T05:18:20;17.30;;;10.63;;
21162;SDS011;10739;52.198;20.908;2023-04-30T05:20:46;18.15;;;11.50;;
21162;SDS011;10739;52.198;20.908;2023-04-30T05:23:13;15.52;;;11.10;;
21162;SDS011;10739;52.198;20.908;2023-04-30T05:25:39;19.45;;;11.32;;
21162;SDS011;10739;52.198;20.908;2023-04-30T05:28:06;19.30;;;11.45;;
21162;SDS011;10739;52.198;20.908;2023-04-30T05:30:32;14.70;;;11.27;;
21162;SDS011;10739;52.198;20.908;2023-04-30T05:32:58;17.77;;;10.77;;
21162;SDS011;10739;52.198;20.908;2023-04-30T05:35:25;17.52;;;11.32;;
21162;SDS011;10739;52.198;20.908;2023-04-30T05:37:51;23.50;;;12.45;;
21162;SDS011;10739;52.198;20.908;2023-04-30T05:40:17;15.45;;;10.68;;
21162;SDS011;10739;52.198;20.908;2023-04-30T05:42:44;16.25;;;11.00;;
21162;SDS011;10739;52.198;20.908;2023-04-30T05:45:11;18.27;;;11.55;;
21162;SDS011;10739;52.198;20.908;2023-04-30T05:47:39;14.88;;;12.25;;
21162;SDS011;10739;52.198;20.908;2023-04-30T05:50:05;15.85;;;11.32;;
21162;SDS011;10739;52.198;20.908;2023-04-30T05:52:34;18.70;;;13.32;;
21162;SDS011;10739;52.198;20.908;2023-04-30T05:55:00;16.80;;;12.68;;
21162;SDS011;10739;52.198;20.908;2023-04-30T05:57:26;18.92;;;12.80;;
21162;SDS011;10739;52.198;20.908;2023-04-30T05:59:53;19.30;;;12.88;;
21162;SDS011;10739;52.198;20.908;2023-04-30T06:02:19;21.23;;;13.32;;
21162;SDS011;10739;52.198;20.908;2023-04-30T06:04:46;19.15;;;14.07;;
21162;SDS011;10739;52.198;20.908;2023-04-30T06:07:12;19.52;;;14.73;;
21162;SDS011;10739;52.198;20.908;2023-04-30T06:09:39;24.90;;;16.33;;
21162;SDS011;10739;52.198;20.908;2023-04-30T06:12:05;21.58;;;15.90;;
21162;SDS011;10739;52.198;20.908;2023-04-30T06:14:32;21.27;;;15.68;;
21162;SDS011;10739;52.198;20.908;2023-04-30T06:16:59;24.92;;;17.08;;
21162;SDS011;10739;52.198;20.908;2023-04-30T06:19:25;22.05;;;17.85;;
21162;SDS011;10739;52.198;20.908;2023-04-30T06:21:52;22.13;;;18.33;;
21162;SDS011;10739;52.198;20.908;2023-04-30T06:24:18;26.92;;;19.38;;
21162;SDS011;10739;52.198;20.908;2023-04-30T06:26:44;26.80;;;20.80;;
21162;SDS011;10739;52.198;20.908;2023-04-30T06:29:10;26.15;;;19.38;;
21162;SDS011;10739;52.198;20.908;2023-04-30T06:31:36;23.92;;;18.50;;
21162;SDS011;10739;52.198;20.908;2023-04-30T06:34:03;22.80;;;17.73;;
21162;SDS011;10739;52.198;20.908;2023-04-30T06:36:29;23.20;;;18.30;;
21162;SDS011;10739;52.198;20.908;2023-04-30T06:38:55;23.42;;;16.80;;
21162;SDS011;10739;52.198;20.908;2023-04-30T06:41:22;22.88;;;16.15;;
21162;SDS011;10739;52.198;20.908;2023-04-30T06:43:48;19.25;;;13.70;;
21162;SDS011;10739;52.198;20.908;2023-04-30T06:46:14;23.15;;;13.05;;
21162;SDS011;10739;52.198;20.908;2023-04-30T06:48:41;13.60;;;11.02;;
21162;SDS011;10739;52.198;20.908;2023-04-30T06:51:07;19.02;;;11.18;;
21162;SDS011;10739;52.198;20.908;2023-04-30T06:53:33;16.00;;;10.38;;
21162;SDS011;10739;52.198;20.908;2023-04-30T06:56:00;15.20;;;8.68;;
21162;SDS011;10739;52.198;20.908;2023-04-30T06:58:26;12.93;;;7.65;;
21162;SDS011;10739;52.198;20.908;2023-04-30T07:00:52;9.27;;;6.60;;
21162;SDS011;10739;52.198;20.908;2023-04-30T07:03:18;13.73;;;5.97;;
21162;SDS011;10739;52.198;20.908;2023-04-30T07:05:45;12.00;;;6.65;;
21162;SDS011;10739;52.198;20.908;2023-04-30T07:08:12;10.25;;;6.07;;
21162;SDS011;10739;52.198;20.908;2023-04-30T07:10:39;8.25;;;5.88;;
21162;SDS011;10739;52.198;20.908;2023-04-30T07:13:05;14.60;;;5.75;;
21162;SDS011;10739;52.198;20.908;2023-04-30T07:15:32;8.93;;;5.72;;
21162;SDS011;10739;52.198;20.908;2023-04-30T07:17:59;8.38;;;5.35;;
21162;SDS011;10739;52.198;20.908;2023-04-30T07:20:25;11.57;;;5.05;;
21162;SDS011;10739;52.198;20.908;2023-04-30T07:22:51;10.73;;;4.43;;
21162;SDS011;10739;52.198;20.908;2023-04-30T07:25:20;11.60;;;4.88;;
21162;SDS011;10739;52.198;20.908;2023-04-30T07:27:46;11.02;;;4.88;;
21162;SDS011;10739;52.198;20.908;2023-04-30T07:30:12;11.25;;;4.82;;
21162;SDS011;10739;52.198;20.908;2023-04-30T07:32:39;10.05;;;5.32;;
21162;SDS011;10739;52.198;20.908;2023-04-30T07:35:05;10.60;;;5.60;;
21162;SDS011;10739;52.198;20.908;2023-04-30T07:37:32;9.68;;;4.63;;
21162;SDS011;10739;52.198;20.908;2023-04-30T07:39:58;10.68;;;5.78;;
21162;SDS011;10739;52.198;20.908;2023-04-30T07:42:25;9.88;;;5.25;;
21162;SDS011;10739;52.198;20.908;2023-04-30T07:44:51;15.75;;;4.85;;
21162;SDS011;10739;52.198;20.908;2023-04-30T07:47:22;10.25;;;4.85;;
21162;SDS011;10739;52.198;20.908;2023-04-30T07:49:49;9.88;;;4.80;;
21162;SDS011;10739;52.198;20.908;2023-04-30T07:52:16;11.95;;;4.22;;
21162;SDS011;10739;52.198;20.908;2023-04-30T07:54:42;8.48;;;4.20;;
21162;SDS011;10739;52.198;20.908;2023-04-30T07:57:08;7.47;;;3.85;;
21162;SDS011;10739;52.198;20.908;2023-04-30T07:59:35;10.80;;;3.90;;
21162;SDS011;10739;52.198;20.908;2023-04-30T08:02:01;7.43;;;4.03;;
21162;SDS011;10739;52.198;20.908;2023-04-30T08:04:28;8.45;;;3.75;;
21162;SDS011;10739;52.198;20.908;2023-04-30T08:06:54;9.82;;;4.22;;
21162;SDS011;10739;52.198;20.908;2023-04-30T08:09:20;9.50;;;4.28;;
21162;SDS011;10739;52.198;20.908;2023-04-30T08:11:47;7.57;;;4.00;;
21162;SDS011;10739;52.198;20.908;2023-04-30T08:14:13;8.80;;;3.80;;
21162;SDS011;10739;52.198;20.908;2023-04-30T08:16:39;7.45;;;4.25;;
21162;SDS011;10739;52.198;20.908;2023-04-30T08:19:05;10.13;;;4.70;;
21162;SDS011;10739;52.198;20.908;2023-04-30T08:21:31;9.07;;;3.75;;
21162;SDS011;10739;52.198;20.908;2023-04-30T08:23:58;8.10;;;4.07;;
21162;SDS011;10739;52.198;20.908;2023-04-30T08:26:24;6.75;;;3.30;;
21162;SDS011;10739;52.198;20.908;2023-04-30T08:28:51;12.65;;;4.20;;
21162;SDS011;10739;52.198;20.908;2023-04-30T08:31:17;7.53;;;3.55;;
21162;SDS011;10739;52.198;20.908;2023-04-30T08:33:43;7.28;;;3.42;;
21162;SDS011;10739;52.198;20.908;2023-04-30T08:36:10;7.95;;;3.92;;
21162;SDS011;10739;52.198;20.908;2023-04-30T08:38:36;9.30;;;3.20;;
21162;SDS011;10739;52.198;20.908;2023-04-30T08:41:10;8.80;;;3.22;;
21162;SDS011;10739;52.198;20.908;2023-04-30T08:43:39;8.02;;;3.05;;
21162;SDS011;10739;52.198;20.908;2023-04-30T08:46:08;7.68;;;3.03;;
21162;SDS011;10739;52.198;20.908;2023-04-30T08:48:38;5.35;;;2.78;;
21162;SDS011;10739;52.198;20.908;2023-04-30T08:51:06;7.80;;;3.13;;
21162;SDS011;10739;52.198;20.908;2023-04-30T08:53:35;6.68;;;2.90;;
21162;SDS011;10739;52.198;20.908;2023-04-30T08:56:03;6.15;;;3.13;;
21162;SDS011;10739;52.198;20.908;2023-04-30T08:58:30;6.70;;;3.17;;
21162;SDS011;10739;52.198;20.908;2023-04-30T09:00:57;5.53;;;2.80;;
21162;SDS011;10739;52.198;20.908;2023-04-30T09:03:24;5.20;;;2.63;;
21162;SDS011;10739;52.198;20.908;2023-04-30T09:05:51;7.25;;;3.20;;
21162;SDS011;10739;52.198;20.908;2023-04-30T09:08:19;6.57;;;2.92;;
21162;SDS011;10739;52.198;20.908;2023-04-30T09:11:20;4.07;;;2.83;;
21162;SDS011;10739;52.198;20.908;2023-04-30T09:13:58;7.03;;;3.00;;
21162;SDS011;10739;52.198;20.908;2023-04-30T09:16:26;4.15;;;2.67;;
21162;SDS011;10739;52.198;20.908;2023-04-30T09:19:23;5.68;;;2.78;;
21162;SDS011;10739;52.198;20.908;2023-04-30T09:21:53;4.00;;;2.70;;
21162;SDS011;10739;52.198;20.908;2023-04-30T09:24:20;5.65;;;2.90;;
21162;SDS011;10739;52.198;20.908;2023-04-30T09:26:49;8.68;;;2.97;;
21162;SDS011;10739;52.198;20.908;2023-04-30T09:29:16;7.50;;;2.70;;
21162;SDS011;10739;52.198;20.908;2023-04-30T09:31:43;5.20;;;2.38;;
21162;SDS011;10739;52.198;20.908;2023-04-30T09:34:12;5.93;;;2.40;;
21162;SDS011;10739;52.198;20.908;2023-04-30T09:36:54;6.20;;;2.60;;
21162;SDS011;10739;52.198;20.908;2023-04-30T09:39:21;4.55;;;2.20;;
21162;SDS011;10739;52.198;20.908;2023-04-30T09:41:49;4.57;;;2.35;;
21162;SDS011;10739;52.198;20.908;2023-04-30T09:44:30;6.30;;;2.53;;
21162;SDS011;10739;52.198;20.908;2023-04-30T09:47:01;5.95;;;3.83;;
21162;SDS011;10739;52.198;20.908;2023-04-30T09:49:27;7.55;;;2.83;;
21162;SDS011;10739;52.198;20.908;2023-04-30T09:51:58;10.10;;;2.90;;
21162;SDS011;10739;52.198;20.908;2023-04-30T09:54:29;3.47;;;2.10;;
21162;SDS011;10739;52.198;20.908;2023-04-30T09:56:58;4.05;;;2.30;;
21162;SDS011;10739;52.198;20.908;2023-04-30T09:59:28;3.72;;;2.28;;
21162;SDS011;10739;52.198;20.908;2023-04-30T10:01:58;3.13;;;2.63;;
21162;SDS011;10739;52.198;20.908;2023-04-30T10:04:29;4.00;;;2.47;;
21162;SDS011;10739;52.198;20.908;2023-04-30T10:07:01;5.57;;;2.35;;
21162;SDS011;10739;52.198;20.908;2023-04-30T10:09:47;4.90;;;2.33;;
21162;SDS011;10739;52.198;20.908;2023-04-30T10:12:23;6.78;;;2.65;;
21162;SDS011;10739;52.198;20.908;2023-04-30T10:15:47;5.78;;;2.60;;
21162;SDS011;10739;52.198;20.908;2023-04-30T10:17:54;5.97;;;2.05;;
21162;SDS011;10739;52.198;20.908;2023-04-30T10:20:35;3.47;;;2.22;;
21162;SDS011;10739;52.198;20.908;2023-04-30T10:23:04;5.70;;;2.38;;
21162;SDS011;10739;52.198;20.908;2023-04-30T10:25:31;3.40;;;2.47;;
21162;SDS011;10739;52.198;20.908;2023-04-30T10:27:58;7.65;;;1.90;;
21162;SDS011;10739;52.198;20.908;2023-04-30T10:30:25;5.72;;;2.28;;
21162;SDS011;10739;52.198;20.908;2023-04-30T10:35:52;5.55;;;2.30;;
21162;SDS011;10739;52.198;20.908;2023-04-30T10:38:27;5.07;;;2.20;;
21162;SDS011;10739;52.198;20.908;2023-04-30T10:40:57;11.00;;;2.17;;
21162;SDS011;10739;52.198;20.908;2023-04-30T10:43:29;5.10;;;2.00;;
21162;SDS011;10739;52.198;20.908;2023-04-30T10:45:56;4.97;;;1.83;;
21162;SDS011;10739;52.198;20.908;2023-04-30T10:48:23;7.38;;;1.75;;
21162;SDS011;10739;52.198;20.908;2023-04-30T10:50:51;2.55;;;1.52;;
21162;SDS011;10739;52.198;20.908;2023-04-30T10:53:23;2.58;;;1.88;;
21162;SDS011;10739;52.198;20.908;2023-04-30T10:55:53;4.10;;;2.03;;
21162;SDS011;10739;52.198;20.908;2023-04-30T10:58:30;2.95;;;2.00;;
21162;SDS011;10739;52.198;20.908;2023-04-30T11:01:04;6.97;;;2.08;;
21162;SDS011;10739;52.198;20.908;2023-04-30T11:03:39;10.48;;;1.90;;
21162;SDS011;10739;52.198;20.908;2023-04-30T11:06:12;5.57;;;2.33;;
21162;SDS011;10739;52.198;20.908;2023-04-30T11:08:43;8.45;;;2.50;;
21162;SDS011;10739;52.198;20.908;2023-04-30T11:11:11;3.72;;;1.95;;
21162;SDS011;10739;52.198;20.908;2023-04-30T11:13:57;4.53;;;2.13;;
21162;SDS011;10739;52.198;20.908;2023-04-30T11:16:28;5.45;;;2.20;;
21162;SDS011;10739;52.198;20.908;2023-04-30T11:19:31;4.45;;;1.58;;
21162;SDS011;10739;52.198;20.908;2023-04-30T11:27:25;4.97;;;2.00;;
21162;SDS011;10739;52.198;20.908;2023-04-30T11:29:54;3.53;;;2.28;;
21162;SDS011;10739;52.198;20.908;2023-04-30T11:32:23;3.88;;;1.70;;
21162;SDS011;10739;52.198;20.908;2023-04-30T11:34:57;6.15;;;2.38;;
21162;SDS011;10739;52.198;20.908;2023-04-30T11:37:38;7.57;;;2.33;;
21162;SDS011;10739;52.198;20.908;2023-04-30T11:40:11;7.85;;;2.03;;
21162;SDS011;10739;52.198;20.908;2023-04-30T11:42:40;8.85;;;2.30;;
21162;SDS011;10739;52.198;20.908;2023-04-30T11:45:09;4.25;;;1.80;;
21162;SDS011;10739;52.198;20.908;2023-04-30T11:47:38;2.15;;;1.50;;
21162;SDS011;10739;52.198;20.908;2023-04-30T11:50:12;3.28;;;1.83;;
21162;SDS011;10739;52.198;20.908;2023-04-30T11:52:54;3.42;;;2.00;;
21162;SDS011;10739;52.198;20.908;2023-04-30T11:55:23;6.97;;;1.98;;
21162;SDS011;10739;52.198;20.908;2023-04-30T11:57:52;4.90;;;1.92;;
21162;SDS011;10739;52.198;20.908;2023-04-30T12:00:27;4.50;;;2.00;;
21162;SDS011;10739;52.198;20.908;2023-04-30T12:02:55;5.88;;;1.98;;
21162;SDS011;10739;52.198;20.908;2023-04-30T12:05:25;4.88;;;1.80;;
21162;SDS011;10739;52.198;20.908;2023-04-30T12:07:56;3.35;;;1.95;;
21162;SDS011;10739;52.198;20.908;2023-04-30T12:10:31;9.27;;;2.15;;
21162;SDS011;10739;52.198;20.908;2023-04-30T12:12:58;3.67;;;1.80;;
21162;SDS011;10739;52.198;20.908;2023-04-30T12:15:25;6.50;;;2.10;;
21162;SDS011;10739;52.198;20.908;2023-04-30T12:17:52;3.42;;;1.90;;
21162;SDS011;10739;52.198;20.908;2023-04-30T12:20:24;6.55;;;2.30;;
21162;SDS011;10739;52.198;20.908;2023-04-30T12:22:53;4.97;;;2.28;;
21162;SDS011;10739;52.198;20.908;2023-04-30T12:25:20;5.55;;;1.80;;
21162;SDS011;10739;52.198;20.908;2023-04-30T12:27:48;3.55;;;1.85;;
21162;SDS011;10739;52.198;20.908;2023-04-30T12:30:24;7.20;;;2.00;;
21162;SDS011;10739;52.198;20.908;2023-04-30T12:32:52;11.02;;;2.15;;
21162;SDS011;10739;52.198;20.908;2023-04-30T12:35:22;6.57;;;1.95;;
21162;SDS011;10739;52.198;20.908;2023-04-30T12:37:49;5.45;;;2.25;;
21162;SDS011;10739;52.198;20.908;2023-04-30T12:40:19;4.40;;;2.03;;
21162;SDS011;10739;52.198;20.908;2023-04-30T12:42:51;5.70;;;1.90;;
21162;SDS011;10739;52.198;20.908;2023-04-30T12:45:47;6.10;;;2.30;;
21162;SDS011;10739;52.198;20.908;2023-04-30T12:48:21;5.75;;;1.70;;
21162;SDS011;10739;52.198;20.908;2023-04-30T12:50:53;3.55;;;2.00;;
21162;SDS011;10739;52.198;20.908;2023-04-30T12:53:28;3.15;;;1.80;;
21162;SDS011;10739;52.198;20.908;2023-04-30T12:56:10;6.10;;;2.20;;
21162;SDS011;10739;52.198;20.908;2023-04-30T12:58:42;6.13;;;2.00;;
21162;SDS011;10739;52.198;20.908;2023-04-30T13:01:12;4.20;;;2.03;;
21162;SDS011;10739;52.198;20.908;2023-04-30T13:03:42;3.28;;;1.90;;
21162;SDS011;10739;52.198;20.908;2023-04-30T13:06:08;10.05;;;1.90;;
21162;SDS011;10739;52.198;20.908;2023-04-30T13:08:34;6.32;;;2.33;;
21162;SDS011;10739;52.198;20.908;2023-04-30T13:11:01;4.53;;;2.30;;
21162;SDS011;10739;52.198;20.908;2023-04-30T13:13:28;3.58;;;2.15;;
21162;SDS011;10739;52.198;20.908;2023-04-30T13:15:55;6.18;;;2.05;;
21162;SDS011;10739;52.198;20.908;2023-04-30T13:18:21;6.45;;;2.20;;
21162;SDS011;10739;52.198;20.908;2023-04-30T13:20:47;5.85;;;2.33;;
21162;SDS011;10739;52.198;20.908;2023-04-30T13:23:14;7.32;;;2.22;;
21162;SDS011;10739;52.198;20.908;2023-04-30T13:25:40;3.70;;;1.75;;
21162;SDS011;10739;52.198;20.908;2023-04-30T13:28:07;5.35;;;1.80;;
21162;SDS011;10739;52.198;20.908;2023-04-30T13:30:33;3.40;;;1.50;;
21162;SDS011;10739;52.198;20.908;2023-04-30T13:33:00;6.25;;;1.90;;
21162;SDS011;10739;52.198;20.908;2023-04-30T13:35:26;2.85;;;1.83;;
21162;SDS011;10739;52.198;20.908;2023-04-30T13:37:54;3.92;;;1.67;;
21162;SDS011;10739;52.198;20.908;2023-04-30T13:40:23;3.65;;;1.85;;
21162;SDS011;10739;52.198;20.908;2023-04-30T13:42:49;3.75;;;1.80;;
21162;SDS011;10739;52.198;20.908;2023-04-30T13:45:15;5.75;;;1.55;;
21162;SDS011;10739;52.198;20.908;2023-04-30T13:47:41;3.72;;;1.90;;
21162;SDS011;10739;52.198;20.908;2023-04-30T13:50:08;4.30;;;1.98;;
21162;SDS011;10739;52.198;20.908;2023-04-30T13:52:35;6.47;;;2.00;;
21162;SDS011;10739;52.198;20.908;2023-04-30T13:55:01;5.47;;;1.98;;
21162;SDS011;10739;52.198;20.908;2023-04-30T13:57:29;3.67;;;1.85;;
21162;SDS011;10739;52.198;20.908;2023-04-30T13:59:57;4.32;;;1.83;;
21162;SDS011;10739;52.198;20.908;2023-04-30T14:02:25;5.28;;;1.90;;
21162;SDS011;10739;52.198;20.908;2023-04-30T14:04:52;5.05;;;1.98;;
21162;SDS011;10739;52.198;20.908;2023-04-30T14:07:19;4.75;;;1.95;;
21162;SDS011;10739;52.198;20.908;2023-04-30T14:09:45;3.95;;;1.80;;
21162;SDS011;10739;52.198;20.908;2023-04-30T14:12:11;5.90;;;1.88;;
21162;SDS011;10739;52.198;20.908;2023-04-30T14:14:38;5.65;;;1.70;;
21162;SDS011;10739;52.198;20.908;2023-04-30T14:17:04;6.68;;;1.60;;
21162;SDS011;10739;52.198;20.908;2023-04-30T14:19:32;4.93;;;1.85;;
21162;SDS011;10739;52.198;20.908;2023-04-30T14:21:59;4.50;;;1.92;;
21162;SDS011;10739;52.198;20.908;2023-04-30T14:24:25;4.47;;;1.65;;
21162;SDS011;10739;52.198;20.908;2023-04-30T14:26:52;8.30;;;1.50;;
21162;SDS011;10739;52.198;20.908;2023-04-30T14:29:18;4.45;;;1.88;;
21162;SDS011;10739;52.198;20.908;2023-04-30T14:31:45;4.47;;;1.60;;
21162;SDS011;10739;52.198;20.908;2023-04-30T14:34:11;6.05;;;1.92;;
21162;SDS011;10739;52.198;20.908;2023-04-30T14:36:38;3.38;;;1.95;;
21162;SDS011;10739;52.198;20.908;2023-04-30T14:39:04;2.97;;;1.75;;
21162;SDS011;10739;52.198;20.908;2023-04-30T14:41:34;2.85;;;1.38;;
21162;SDS011;10739;52.198;20.908;2023-04-30T14:44:02;4.70;;;1.92;;
21162;SDS011;10739;52.198;20.908;2023-04-30T14:46:28;10.65;;;1.60;;
21162;SDS011;10739;52.198;20.908;2023-04-30T14:48:56;4.30;;;1.60;;
21162;SDS011;10739;52.198;20.908;2023-04-30T14:51:22;3.13;;;1.80;;
21162;SDS011;10739;52.198;20.908;2023-04-30T14:53:48;2.78;;;1.42;;
21162;SDS011;10739;52.198;20.908;2023-04-30T14:56:15;3.45;;;1.85;;
21162;SDS011;10739;52.198;20.908;2023-04-30T14:58:41;3.00;;;1.60;;
21162;SDS011;10739;52.198;20.908;2023-04-30T15:01:07;5.05;;;1.67;;